createdAt,value
2022-11-22T00:00:38.189Z,100.00
2022-11-22T00:03:05.654Z,100.00
2022-11-22T00:05:33.418Z,100.00
2022-11-22T00:08:01.016Z,100.00
2022-11-22T00:10:28.449Z,100.00
2022-11-22T00:12:56.257Z,100.00
2022-11-22T00:15:24.085Z,100.00
2022-11-22T00:17:52.858Z,100.00
2022-11-22T00:20:20.306Z,100.00
2022-11-22T00:22:47.787Z,100.00
2022-11-22T00:25:15.836Z,100.00
2022-11-22T00:27:43.433Z,100.00
2022-11-22T00:30:11.748Z,100.00
2022-11-22T00:32:39.205Z,100.00
2022-11-22T00:35:08.971Z,100.00
2022-11-22T00:37:36.406Z,100.00
2022-11-22T00:40:03.973Z,100.00
2022-11-22T00:42:31.409Z,100.00
2022-11-22T00:44:58.863Z,100.00
2022-11-22T00:47:26.269Z,100.00
2022-11-22T00:49:53.689Z,100.00
2022-11-22T00:52:22.445Z,100.00
2022-11-22T00:54:54.534Z,100.00
2022-11-22T00:57:22.553Z,100.00
2022-11-22T00:59:49.964Z,99.38
2022-11-22T01:02:17.471Z,99.01
2022-11-22T01:04:44.964Z,99.06
2022-11-22T01:07:12.690Z,99.45
2022-11-22T01:09:41.472Z,98.77
2022-11-22T01:12:09.198Z,98.45
2022-11-22T01:14:36.681Z,98.33
2022-11-22T01:17:04.511Z,98.23
2022-11-22T01:19:32.508Z,98.32
2022-11-22T01:21:59.998Z,98.75
2022-11-22T01:24:27.480Z,98.55
2022-11-22T01:26:56.865Z,98.83
2022-11-22T01:29:24.529Z,98.88
2022-11-22T01:31:51.944Z,98.92
2022-11-22T01:34:19.467Z,99.07
2022-11-22T01:36:46.918Z,99.04
2022-11-22T01:39:15.078Z,98.55
2022-11-22T01:41:42.493Z,99.03
2022-11-22T01:44:22.449Z,99.23
2022-11-22T01:46:52.214Z,98.83
2022-11-22T01:49:26.515Z,99.20
2022-11-22T01:51:57.724Z,99.46
2022-11-22T01:54:28.355Z,99.63
2022-11-22T01:56:59.887Z,99.42
2022-11-22T01:59:34.284Z,100.00
2022-11-22T02:02:02.690Z,99.66
2022-11-22T02:04:33.778Z,99.86
2022-11-22T02:07:07.612Z,99.64
2022-11-22T02:09:36.960Z,99.29
2022-11-22T02:12:06.873Z,98.87
2022-11-22T02:14:37.250Z,98.83
2022-11-22T02:17:04.710Z,99.11
2022-11-22T02:19:40.734Z,99.12
2022-11-22T02:22:20.495Z,98.93
2022-11-22T02:24:54.619Z,98.97
2022-11-22T02:27:24.426Z,98.53
2022-11-22T02:29:51.994Z,97.76
2022-11-22T02:32:19.428Z,97.85
2022-11-22T02:34:49.983Z,98.21
2022-11-22T02:37:21.392Z,98.71
2022-11-22T02:39:52.175Z,99.25
2022-11-22T02:42:20.026Z,99.30
2022-11-22T02:44:48.779Z,99.55
2022-11-22T02:47:16.177Z,99.10
2022-11-22T02:49:43.577Z,99.02
2022-11-22T02:52:11.051Z,98.77
2022-11-22T02:54:38.458Z,98.30
2022-11-22T02:57:05.878Z,97.66
2022-11-22T02:59:33.309Z,96.77
2022-11-22T03:02:03.522Z,96.82
2022-11-22T03:04:31.207Z,97.44
2022-11-22T03:07:00.828Z,97.90
2022-11-22T03:09:29.002Z,98.64
2022-11-22T03:11:56.872Z,99.13
2022-11-22T03:14:24.612Z,98.57
2022-11-22T03:16:52.307Z,97.96
2022-11-22T03:19:21.198Z,98.21
2022-11-22T03:21:48.817Z,97.33
2022-11-22T03:24:16.299Z,97.30
2022-11-22T03:26:48.076Z,97.38
2022-11-22T03:29:15.805Z,97.98
2022-11-22T03:31:43.310Z,98.38
2022-11-22T03:34:12.766Z,98.71
2022-11-22T03:36:41.671Z,98.94
2022-11-22T03:39:09.349Z,98.57
2022-11-22T03:41:36.943Z,98.36
2022-11-22T03:44:05.239Z,98.09
2022-11-22T03:46:32.658Z,97.65
2022-11-22T03:49:00.133Z,97.89
2022-11-22T03:51:27.918Z,97.34
2022-11-22T03:53:56.684Z,96.99
2022-11-22T03:56:24.883Z,96.49
2022-11-22T03:58:52.313Z,96.09
2022-11-22T04:01:19.779Z,96.22
2022-11-22T04:03:47.217Z,95.67
2022-11-22T04:06:14.660Z,95.56
2022-11-22T04:08:42.210Z,95.79
2022-11-22T04:11:12.117Z,95.39
2022-11-22T04:13:57.137Z,95.25
2022-11-22T04:16:24.595Z,94.39
2022-11-22T04:18:52.029Z,94.61
2022-11-22T04:21:33.784Z,95.26
2022-11-22T04:24:18.769Z,95.50
2022-11-22T04:26:48.873Z,96.42
2022-11-22T04:29:16.334Z,96.54
2022-11-22T04:32:01.682Z,96.73
2022-11-22T04:34:29.317Z,97.05
2022-11-22T04:36:56.730Z,97.19
2022-11-22T04:39:24.364Z,96.55
2022-11-22T04:42:15.152Z,96.47
2022-11-22T04:44:42.209Z,96.82
2022-11-22T04:47:09.810Z,96.80
2022-11-22T04:49:37.439Z,96.94
2022-11-22T04:52:23.397Z,96.95
2022-11-22T04:54:50.968Z,97.40
2022-11-22T04:57:19.726Z,97.16
2022-11-22T04:59:47.146Z,97.40
2022-11-22T05:02:14.572Z,97.90
2022-11-22T05:04:45.124Z,96.94
2022-11-22T05:07:16.673Z,96.36
2022-11-22T05:09:44.109Z,96.42
2022-11-22T05:12:11.557Z,96.40
2022-11-22T05:14:40.336Z,96.63
2022-11-22T05:17:09.430Z,96.73
2022-11-22T05:19:43.570Z,97.01
2022-11-22T05:22:13.722Z,96.60
2022-11-22T05:24:40.164Z,96.88
2022-11-22T05:27:07.575Z,96.93
2022-11-22T05:29:35.002Z,97.08
2022-11-22T05:32:04.061Z,96.91
2022-11-22T05:34:31.443Z,97.18
2022-11-22T05:36:59.071Z,97.51
2022-11-22T05:39:26.579Z,97.38
2022-11-22T05:41:56.935Z,97.77
2022-11-22T05:44:24.767Z,97.84
2022-11-22T05:46:52.166Z,98.22
2022-11-22T05:49:20.894Z,97.82
2022-11-22T05:51:48.307Z,97.67
2022-11-22T05:54:15.726Z,97.67
2022-11-22T05:56:43.136Z,97.95
2022-11-22T05:59:10.799Z,97.59
2022-11-22T06:01:38.180Z,96.85
2022-11-22T06:04:05.846Z,96.06
2022-11-22T06:06:34.613Z,96.75
2022-11-22T06:09:02.023Z,96.85
2022-11-22T06:11:29.667Z,96.63
2022-11-22T06:13:59.462Z,96.46
2022-11-22T06:16:27.967Z,96.52
2022-11-22T06:18:56.042Z,96.70
2022-11-22T06:21:25.149Z,97.16
2022-11-22T06:23:55.178Z,97.23
2022-11-22T06:26:24.267Z,97.48
2022-11-22T06:28:52.409Z,97.21
2022-11-22T06:31:22.933Z,97.00
2022-11-22T06:33:51.030Z,97.13
2022-11-22T06:36:20.369Z,96.98
2022-11-22T06:38:48.239Z,96.68
2022-11-22T06:41:18.845Z,95.30
2022-11-22T06:43:49.276Z,94.63
2022-11-22T06:46:18.718Z,93.39
2022-11-22T06:48:46.565Z,93.59
2022-11-22T06:51:16.306Z,94.54
2022-11-22T06:53:48.769Z,94.83
2022-11-22T06:56:19.928Z,94.45
2022-11-22T06:58:48.137Z,94.89
2022-11-22T07:01:17.127Z,95.37
2022-11-22T07:03:45.506Z,95.64
2022-11-22T07:06:14.837Z,95.58
2022-11-22T07:08:43.231Z,96.25
2022-11-22T07:11:12.381Z,96.49
2022-11-22T07:13:41.965Z,97.07
2022-11-22T07:16:11.812Z,96.79
2022-11-22T07:18:39.634Z,96.87
2022-11-22T07:21:12.911Z,96.83
2022-11-22T07:23:42.340Z,96.77
2022-11-22T07:26:10.034Z,96.93
2022-11-22T07:28:37.686Z,97.11
2022-11-22T07:31:08.935Z,96.40
2022-11-22T07:33:36.899Z,96.07
2022-11-22T07:36:06.427Z,96.17
2022-11-22T07:38:34.278Z,96.33
2022-11-22T07:41:01.741Z,96.24
2022-11-22T07:43:29.487Z,96.54
2022-11-22T07:45:59.521Z,96.28
2022-11-22T07:48:28.343Z,96.27
2022-11-22T07:50:55.750Z,97.04
2022-11-22T07:53:23.228Z,96.96
2022-11-22T07:55:50.648Z,97.14
2022-11-22T07:58:18.085Z,96.30
2022-11-22T08:00:45.503Z,96.29
2022-11-22T08:03:17.218Z,96.57
2022-11-22T08:05:46.653Z,96.84
2022-11-22T08:08:14.078Z,96.16
2022-11-22T08:10:41.479Z,96.27
2022-11-22T08:13:08.952Z,95.67
2022-11-22T08:15:36.344Z,95.69
2022-11-22T08:18:03.762Z,95.14
2022-11-22T08:20:31.163Z,95.40
2022-11-22T08:22:59.886Z,95.71
2022-11-22T08:25:27.383Z,96.02
2022-11-22T08:27:54.852Z,95.95
2022-11-22T08:30:22.286Z,96.06
2022-11-22T08:32:51.424Z,96.45
2022-11-22T08:35:18.825Z,96.72
2022-11-22T08:37:46.240Z,97.44
2022-11-22T08:40:15.369Z,97.33
2022-11-22T08:42:43.079Z,97.29
2022-11-22T08:45:11.199Z,97.48
2022-11-22T08:47:38.610Z,97.53
2022-11-22T08:50:07.090Z,97.68
2022-11-22T08:52:35.469Z,97.82
2022-11-22T08:55:03.007Z,97.85
2022-11-22T08:57:31.759Z,97.52
2022-11-22T08:59:59.153Z,97.80
2022-11-22T09:02:26.643Z,97.46
2022-11-22T09:04:54.059Z,96.77
2022-11-22T09:10:09.405Z,97.60
2022-11-22T09:12:38.149Z,97.38
2022-11-22T09:15:06.516Z,97.31
2022-11-22T09:17:33.934Z,96.45
2022-11-22T09:20:01.327Z,96.81
2022-11-22T09:22:28.845Z,97.19
2022-11-22T09:24:56.248Z,96.76
2022-11-22T09:27:24.711Z,96.59
2022-11-22T09:29:53.502Z,96.58
2022-11-22T09:32:21.005Z,96.16
2022-11-22T09:34:48.421Z,95.88
2022-11-22T09:37:18.412Z,95.84
2022-11-22T09:39:48.505Z,96.52
2022-11-22T09:42:38.270Z,96.57
2022-11-22T09:45:26.532Z,96.03
2022-11-22T09:48:06.844Z,95.26
2022-11-22T09:50:46.873Z,94.55
2022-11-22T09:53:19.179Z,93.94
2022-11-22T09:55:49.392Z,94.44
2022-11-22T09:58:28.004Z,93.50
2022-11-22T10:01:03.162Z,93.68
2022-11-22T10:03:43.096Z,92.44
2022-11-22T10:06:16.886Z,92.98
2022-11-22T10:08:52.661Z,92.15
2022-11-22T10:11:34.957Z,92.97
2022-11-22T10:14:11.372Z,92.93
2022-11-22T10:16:45.025Z,92.33
2022-11-22T10:19:17.528Z,92.64
2022-11-22T10:21:47.554Z,92.30
2022-11-22T10:24:17.656Z,92.09
2022-11-22T10:26:46.729Z,91.61
2022-11-22T10:29:27.167Z,92.00
2022-11-22T10:32:03.663Z,92.38
2022-11-22T10:34:46.475Z,91.52
2022-11-22T10:37:24.266Z,92.33
2022-11-22T10:40:03.837Z,91.74
2022-11-22T10:42:46.634Z,92.00
2022-11-22T10:45:21.786Z,91.81
2022-11-22T10:48:01.334Z,91.70
2022-11-22T10:50:37.828Z,90.83
2022-11-22T10:53:12.286Z,91.79
2022-11-22T10:55:51.186Z,91.72
2022-11-22T10:58:27.923Z,92.04
2022-11-22T11:01:03.685Z,92.55
2022-11-22T11:03:35.499Z,93.68
2022-11-22T11:06:24.579Z,93.59
2022-11-22T11:11:51.926Z,93.43
2022-11-22T11:14:28.745Z,93.36
2022-11-22T11:16:56.637Z,93.73
2022-11-22T11:19:29.366Z,92.26
2022-11-22T11:22:01.481Z,92.18
2022-11-22T11:24:31.057Z,91.31
2022-11-22T11:27:01.155Z,92.03
2022-11-22T11:29:40.500Z,92.74
2022-11-22T11:32:11.452Z,93.25
2022-11-22T11:34:42.957Z,92.22
2022-11-22T11:37:22.336Z,92.92
2022-11-22T11:39:50.263Z,93.39
2022-11-22T11:42:27.769Z,92.72
2022-11-22T11:44:55.713Z,93.11
2022-11-22T11:47:34.131Z,93.28
2022-11-22T11:50:02.876Z,93.35
2022-11-22T11:52:31.566Z,92.27
2022-11-22T11:55:01.609Z,92.71
2022-11-22T11:57:31.517Z,92.71
2022-11-22T12:00:01.230Z,93.09
2022-11-22T12:02:36.208Z,94.66
2022-11-22T12:05:07.595Z,94.49
2022-11-22T12:07:43.943Z,95.32
2022-11-22T12:10:30.941Z,94.60
2022-11-22T12:13:04.663Z,95.46
2022-11-22T12:15:41.015Z,95.37
2022-11-22T12:18:24.241Z,96.03
2022-11-22T12:21:02.525Z,96.45
2022-11-22T12:23:37.162Z,97.17
2022-11-22T12:26:05.174Z,97.19
2022-11-22T12:28:32.935Z,96.80
2022-11-22T12:31:09.349Z,96.38
2022-11-22T12:33:43.845Z,96.83
2022-11-22T12:36:19.067Z,96.93
2022-11-22T12:38:48.696Z,97.66
2022-11-22T12:41:19.772Z,98.28
2022-11-22T12:43:53.241Z,98.59
2022-11-22T12:46:25.995Z,98.54
2022-11-22T12:48:56.823Z,97.69
2022-11-22T12:51:29.469Z,97.09
2022-11-22T12:54:00.506Z,97.10
2022-11-22T12:56:33.726Z,96.99
2022-11-22T12:59:06.738Z,96.49
2022-11-22T13:01:40.353Z,96.46
2022-11-22T13:04:18.864Z,96.81
2022-11-22T13:06:53.356Z,97.17
2022-11-22T13:09:24.009Z,97.17
2022-11-22T13:11:57.793Z,96.35
2022-11-22T13:14:33.550Z,96.88
2022-11-22T13:17:07.351Z,96.18
2022-11-22T13:19:42.046Z,95.99
2022-11-22T13:22:18.736Z,95.71
2022-11-22T13:25:00.573Z,96.13
2022-11-22T13:27:32.382Z,96.03
2022-11-22T13:30:02.277Z,95.34
2022-11-22T13:32:32.461Z,95.73
2022-11-22T13:35:04.346Z,96.36
2022-11-22T13:37:37.557Z,96.10
2022-11-22T13:40:23.054Z,96.51
2022-11-22T13:43:23.915Z,96.90
2022-11-22T13:45:53.136Z,97.80
2022-11-22T13:48:54.455Z,98.12
2022-11-22T13:51:52.452Z,97.86
2022-11-22T13:54:57.255Z,98.49
2022-11-22T13:57:35.992Z,99.18
2022-11-22T14:00:46.504Z,99.04
2022-11-22T14:03:30.448Z,99.75
2022-11-22T14:05:58.859Z,100.00
2022-11-22T14:08:30.690Z,100.00
2022-11-22T14:11:15.536Z,100.00
2022-11-22T14:13:53.989Z,100.00
2022-11-22T14:16:47.650Z,100.00
2022-11-22T14:19:32.960Z,99.90
2022-11-22T14:22:19.938Z,100.00
2022-11-22T14:24:58.161Z,100.00
2022-11-22T14:27:39.683Z,100.00
2022-11-22T14:30:18.777Z,100.00
2022-11-22T14:32:53.447Z,100.00
2022-11-22T14:35:36.862Z,100.00
2022-11-22T14:38:21.142Z,100.00
2022-11-22T14:40:48.682Z,100.00
2022-11-22T14:43:30.731Z,100.00
2022-11-22T14:46:02.427Z,100.00
2022-11-22T14:48:34.478Z,100.00
2022-11-22T14:51:09.057Z,100.00
2022-11-22T14:53:39.842Z,100.00
2022-11-22T14:56:15.316Z,100.00
2022-11-22T14:58:54.315Z,100.00
2022-11-22T15:01:37.842Z,100.00
2022-11-22T15:09:17.681Z,100.00
2022-11-22T15:09:28.743Z,100.00
2022-11-22T15:10:50.906Z,100.00
2022-11-22T15:13:46.422Z,100.00
2022-11-22T15:57:26.575Z,100.00
2022-11-22T15:59:55.487Z,100.00
2022-11-22T16:02:25.508Z,100.00
2022-11-22T16:06:07.200Z,100.00
2022-11-22T16:07:48.014Z,100.00
2022-11-22T16:10:23.272Z,100.00
2022-11-22T16:12:51.412Z,100.00
2022-11-22T16:15:28.713Z,100.00
2022-11-22T16:18:07.665Z,100.00
2022-11-22T16:20:36.002Z,100.00
2022-11-22T16:23:06.007Z,100.00
2022-11-22T16:25:36.399Z,100.00
2022-11-22T16:28:19.038Z,100.00
2022-11-22T16:30:47.884Z,100.00
2022-11-22T16:33:15.356Z,100.00
2022-11-22T16:35:42.824Z,100.00
2022-11-22T16:38:10.685Z,100.00
2022-11-22T16:40:44.504Z,100.00
2022-11-22T16:43:16.828Z,100.00
2022-11-22T16:45:44.730Z,100.00
2022-11-22T16:48:31.455Z,100.00
2022-11-22T16:51:02.745Z,100.00
2022-11-22T16:53:38.314Z,100.00
2022-11-22T16:56:07.826Z,100.00
2022-11-22T16:58:35.255Z,100.00
2022-11-22T17:01:02.845Z,100.00
2022-11-22T17:03:32.454Z,100.00
2022-11-22T17:05:59.883Z,100.00
2022-11-22T17:08:27.336Z,100.00
2022-11-22T17:10:54.859Z,100.00
2022-11-22T17:13:26.457Z,100.00
2022-11-22T17:15:54.778Z,100.00
2022-11-22T17:18:22.783Z,100.00
2022-11-22T17:20:50.673Z,100.00
2022-11-22T17:23:26.380Z,100.00
2022-11-22T17:25:53.795Z,100.00
2022-11-22T17:28:21.286Z,100.00
2022-11-22T17:30:50.215Z,100.00
2022-11-22T17:33:17.637Z,100.00
2022-11-22T17:35:45.128Z,100.00
2022-11-22T17:38:12.828Z,100.00
2022-11-22T17:40:40.234Z,100.00
2022-11-22T17:43:07.671Z,100.00
2022-11-22T17:45:42.289Z,100.00
2022-11-22T17:48:11.461Z,100.00
2022-11-22T17:50:39.166Z,100.00
2022-11-22T17:53:06.841Z,100.00
2022-11-22T17:55:48.354Z,100.00
2022-11-22T17:58:21.638Z,100.00
2022-11-22T18:00:49.074Z,100.00
2022-11-22T18:03:18.114Z,100.00
2022-11-22T18:05:45.539Z,100.00
2022-11-22T18:08:12.978Z,100.00
2022-11-22T18:10:40.427Z,100.00
2022-11-22T18:13:23.090Z,100.00
2022-11-22T18:16:00.050Z,100.00
2022-11-22T18:18:55.582Z,100.00
2022-11-22T18:21:20.081Z,100.00
2022-11-22T18:23:47.511Z,100.00
2022-11-22T18:29:40.755Z,100.00
2022-11-22T18:31:52.624Z,99.89
2022-11-22T18:34:22.350Z,100.00
2022-11-22T18:37:01.999Z,99.79
2022-11-22T18:39:31.647Z,99.93
2022-11-22T18:41:59.359Z,99.96
2022-11-22T18:44:26.835Z,98.94
2022-11-22T18:46:54.263Z,99.47
2022-11-22T18:49:23.476Z,99.44
2022-11-22T18:51:50.943Z,99.05
2022-11-22T18:54:19.662Z,99.26
2022-11-22T18:56:47.084Z,99.87
2022-11-22T18:59:14.592Z,100.00
2022-11-22T19:01:42.193Z,100.00
2022-11-22T19:04:12.598Z,99.80
2022-11-22T19:06:41.788Z,99.64
2022-11-22T19:09:10.085Z,99.54
2022-11-22T19:11:37.844Z,100.00
2022-11-22T19:14:05.302Z,100.00
2022-11-22T19:16:32.782Z,100.00
2022-11-22T19:19:00.529Z,100.00
2022-11-22T19:21:29.729Z,100.00
2022-11-22T19:23:58.897Z,100.00
2022-11-22T19:26:28.864Z,100.00
2022-11-22T19:28:57.565Z,100.00
2022-11-22T19:31:27.609Z,100.00
2022-11-22T19:33:55.350Z,100.00
2022-11-22T19:36:30.841Z,100.00
2022-11-22T19:39:01.082Z,100.00
2022-11-22T19:41:28.702Z,100.00
2022-11-22T19:43:57.282Z,100.00
2022-11-22T19:46:25.242Z,100.00
2022-11-22T19:48:53.383Z,100.00
2022-11-22T19:51:21.359Z,100.00
2022-11-22T19:53:49.116Z,100.00
2022-11-22T19:56:19.725Z,100.00
2022-11-22T19:58:51.843Z,100.00
2022-11-22T20:01:19.986Z,100.00
2022-11-22T20:03:51.287Z,100.00
2022-11-22T20:06:18.928Z,100.00
2022-11-22T20:08:46.370Z,100.00
2022-11-22T20:11:16.236Z,100.00
2022-11-22T20:13:46.441Z,100.00
2022-11-22T20:16:16.227Z,100.00
2022-11-22T20:18:44.011Z,100.00
2022-11-22T20:21:12.722Z,100.00
2022-11-22T20:23:41.251Z,100.00
2022-11-22T20:26:10.880Z,100.00
2022-11-22T20:28:38.908Z,100.00
2022-11-22T20:31:09.366Z,100.00
2022-11-22T20:33:38.682Z,100.00
2022-11-22T20:36:07.842Z,100.00
2022-11-22T20:38:36.389Z,100.00
2022-11-22T20:41:04.538Z,100.00
2022-11-22T20:43:32.701Z,100.00
2022-11-22T20:46:01.014Z,100.00
2022-11-22T20:48:30.356Z,100.00
2022-11-22T20:50:58.025Z,100.00
2022-11-22T20:53:25.738Z,100.00
2022-11-22T20:55:53.532Z,100.00
2022-11-22T20:58:21.074Z,100.00
2022-11-22T21:00:48.598Z,100.00
2022-11-22T21:03:16.057Z,100.00
2022-11-22T21:05:46.942Z,100.00
2022-11-22T21:08:14.459Z,100.00
2022-11-22T21:10:41.973Z,100.00
2022-11-22T21:13:09.414Z,100.00
2022-11-22T21:15:37.136Z,100.00
2022-11-22T21:18:24.703Z,100.00
2022-11-22T21:20:53.978Z,100.00
2022-11-22T21:23:21.430Z,100.00
2022-11-22T21:25:50.292Z,100.00
2022-11-22T21:28:17.722Z,100.00
2022-11-22T21:30:45.164Z,100.00
2022-11-22T21:33:12.683Z,100.00
2022-11-22T21:35:42.742Z,100.00
2022-11-22T21:38:14.675Z,100.00
2022-11-22T21:40:50.239Z,100.00
2022-11-22T21:43:17.705Z,100.00
2022-11-22T21:45:45.166Z,99.92
2022-11-22T21:48:12.808Z,99.64
2022-11-22T21:50:40.236Z,99.75
2022-11-22T21:53:07.816Z,99.93
2022-11-22T21:55:36.821Z,99.91
2022-11-22T21:58:04.452Z,99.84
2022-11-22T22:00:31.901Z,99.12
2022-11-22T22:02:59.315Z,98.77
2022-11-22T22:05:27.090Z,98.98
2022-11-22T22:07:54.553Z,98.97
2022-11-22T22:10:22.105Z,99.26
2022-11-22T22:12:52.836Z,99.46
2022-11-22T22:15:20.427Z,99.89
2022-11-22T22:17:47.893Z,99.53
2022-11-22T22:20:15.483Z,99.48
2022-11-22T22:22:43.110Z,99.13
2022-11-22T22:25:10.574Z,99.35
2022-11-22T22:27:37.962Z,99.36
2022-11-22T22:30:08.724Z,98.76
2022-11-22T22:32:36.843Z,99.23
2022-11-22T22:35:05.457Z,99.25
2022-11-22T22:37:35.090Z,99.06
2022-11-22T22:40:02.595Z,99.66
2022-11-22T22:42:30.077Z,99.62
2022-11-22T22:44:57.495Z,99.71
2022-11-22T22:47:26.259Z,99.96
2022-11-22T22:49:53.690Z,99.39
2022-11-22T22:52:21.117Z,99.63
2022-11-22T22:54:48.564Z,99.70
2022-11-22T22:57:16.002Z,99.73
2022-11-22T22:59:43.417Z,99.87
2022-11-22T23:02:10.854Z,99.90
2022-11-22T23:04:40.533Z,100.00
2022-11-22T23:07:08.413Z,100.00
2022-11-22T23:09:35.841Z,100.00
2022-11-22T23:12:12.068Z,100.00
2022-11-22T23:14:40.654Z,100.00
2022-11-22T23:17:09.305Z,100.00
2022-11-22T23:19:36.986Z,100.00
2022-11-22T23:22:06.586Z,100.00
2022-11-22T23:24:34.379Z,100.00
2022-11-22T23:27:02.004Z,100.00
2022-11-22T23:29:29.766Z,100.00
2022-11-22T23:31:57.468Z,100.00
2022-11-22T23:34:24.924Z,100.00
2022-11-22T23:36:52.341Z,100.00
2022-11-22T23:39:21.105Z,100.00
2022-11-22T23:41:48.637Z,100.00
2022-11-22T23:44:16.051Z,99.96
2022-11-22T23:46:43.484Z,99.34
2022-11-22T23:49:11.977Z,99.84
2022-11-22T23:51:39.581Z,99.77
2022-11-22T23:54:07.293Z,99.72
2022-11-22T23:56:37.027Z,99.78
2022-11-22T23:59:05.459Z,99.36
